createdAt,value
2018-04-10T00:01:33.274Z,29.20
2018-04-10T00:04:00.824Z,29.50
2018-04-10T00:06:28.417Z,30.03
2018-04-10T00:08:55.981Z,29.00
2018-04-10T00:11:23.539Z,28.87
2018-04-10T00:13:51.093Z,28.60
2018-04-10T00:16:18.704Z,28.57
2018-04-10T00:18:46.237Z,29.60
2018-04-10T00:21:14.744Z,27.87
2018-04-10T00:23:42.314Z,29.00
2018-04-10T00:26:09.888Z,29.23
2018-04-10T00:28:37.464Z,29.87
2018-04-10T00:31:04.998Z,29.97
2018-04-10T00:33:32.548Z,29.13
2018-04-10T00:36:00.117Z,29.53
2018-04-10T00:38:27.691Z,29.17
2018-04-10T00:40:55.261Z,26.97
2018-04-10T00:43:22.801Z,27.93
2018-04-10T00:45:50.356Z,30.40
2018-04-10T00:48:17.896Z,27.40
2018-04-10T00:50:45.468Z,30.73
2018-04-10T00:53:36.780Z,30.30
2018-04-10T00:56:04.347Z,26.67
2018-04-10T00:58:31.890Z,26.63
2018-04-10T01:00:59.486Z,28.07
2018-04-10T01:03:27.099Z,25.97
2018-04-10T01:05:54.683Z,27.17
2018-04-10T01:08:22.256Z,25.03
2018-04-10T01:10:49.813Z,27.50
2018-04-10T01:13:17.372Z,26.23
2018-04-10T01:15:44.947Z,26.00
2018-04-10T01:18:12.533Z,25.13
2018-04-10T01:20:40.093Z,25.47
2018-04-10T01:23:07.648Z,25.53
2018-04-10T01:25:35.211Z,25.43
2018-04-10T01:28:02.768Z,27.00
2018-04-10T01:30:30.323Z,23.97
2018-04-10T01:32:57.889Z,25.10
2018-04-10T01:35:25.433Z,24.70
2018-04-10T01:37:52.995Z,25.30
2018-04-10T01:40:20.578Z,24.97
2018-04-10T01:42:48.142Z,26.43
2018-04-10T01:45:15.726Z,25.37
2018-04-10T01:47:43.517Z,24.77
2018-04-10T01:50:11.161Z,25.27
2018-04-10T01:52:38.714Z,25.77
2018-04-10T01:55:06.277Z,24.97
2018-04-10T01:57:33.818Z,24.60
2018-04-10T02:00:01.380Z,23.37
2018-04-10T02:02:28.943Z,25.00
2018-04-10T02:04:56.500Z,25.97
2018-04-10T02:07:24.076Z,25.23
2018-04-10T02:21:33.859Z,24.50
2018-04-10T02:24:18.959Z,24.57
2018-04-10T02:26:46.501Z,25.30
2018-04-10T02:29:14.047Z,25.47
2018-04-10T02:31:41.600Z,25.13
2018-04-10T02:34:09.195Z,24.97
2018-04-10T02:36:36.733Z,24.63
2018-04-10T02:39:04.314Z,25.37
2018-04-10T02:41:31.878Z,26.37
2018-04-10T02:44:00.022Z,24.53
2018-04-10T02:46:27.769Z,24.10
2018-04-10T02:48:55.326Z,25.17
2018-04-10T02:51:22.888Z,25.30
2018-04-10T02:53:50.464Z,25.63
2018-04-10T02:56:18.027Z,25.73
2018-04-10T02:58:45.581Z,24.90
2018-04-10T03:01:13.120Z,25.43
2018-04-10T03:03:40.649Z,25.30
2018-04-10T03:06:08.201Z,26.03
2018-04-10T03:08:35.752Z,25.10
2018-04-10T03:11:03.309Z,25.10
2018-04-10T03:13:30.862Z,22.53
2018-04-10T03:15:58.453Z,24.80
2018-04-10T03:18:26.043Z,25.10
2018-04-10T03:20:54.212Z,24.87
2018-04-10T03:23:21.742Z,25.53
2018-04-10T03:25:49.333Z,25.07
2018-04-10T03:28:16.889Z,24.07
2018-04-10T03:30:44.469Z,24.73
2018-04-10T03:33:12.090Z,24.80
2018-04-10T03:35:39.677Z,24.43
2018-04-10T03:38:07.230Z,24.30
2018-04-10T03:40:34.798Z,25.00
2018-04-10T03:43:02.358Z,26.30
2018-04-10T03:45:29.950Z,25.27
2018-04-10T03:47:57.566Z,26.17
2018-04-10T03:50:25.125Z,25.80
2018-04-10T03:52:52.668Z,25.57
2018-04-10T03:55:20.233Z,24.77
2018-04-10T03:57:47.798Z,25.70
2018-04-10T04:00:15.363Z,24.20
2018-04-10T04:02:42.910Z,26.30
2018-04-10T04:05:10.486Z,26.27
2018-04-10T04:07:38.041Z,24.93
2018-04-10T04:10:05.607Z,25.27
2018-04-10T04:12:33.185Z,26.70
2018-04-10T04:15:00.736Z,25.80
2018-04-10T04:17:34.150Z,25.83
2018-04-10T04:20:13.407Z,24.97
2018-04-10T04:22:40.964Z,25.07
2018-04-10T04:25:08.563Z,25.73
2018-04-10T04:27:36.113Z,26.67
2018-04-10T04:30:03.687Z,25.13
2018-04-10T04:32:31.257Z,23.97
2018-04-10T04:34:58.806Z,26.27
2018-04-10T04:37:26.417Z,24.03
2018-04-10T04:39:54.005Z,26.73
2018-04-10T04:42:21.584Z,26.03
2018-04-10T04:44:49.121Z,27.07
2018-04-10T04:47:16.735Z,23.67
2018-04-10T04:49:44.313Z,25.73
2018-04-10T04:52:11.893Z,26.17
2018-04-10T04:54:39.425Z,25.30
2018-04-10T04:57:07.051Z,25.30
2018-04-10T04:59:34.631Z,26.17
2018-04-10T05:02:02.173Z,26.03
2018-04-10T05:04:29.733Z,26.97
2018-04-10T05:06:57.286Z,25.70
2018-04-10T05:09:24.853Z,25.63
2018-04-10T05:11:52.422Z,25.30
2018-04-10T05:14:19.957Z,27.63
2018-04-10T05:16:47.514Z,26.63
2018-04-10T05:19:15.112Z,25.30
2018-04-10T05:21:42.696Z,25.07
2018-04-10T05:24:10.248Z,26.63
2018-04-10T05:26:37.812Z,25.67
2018-04-10T05:29:05.376Z,24.53
2018-04-10T05:31:32.931Z,26.77
2018-04-10T05:34:00.516Z,25.83
2018-04-10T05:36:28.049Z,27.30
2018-04-10T05:38:55.607Z,25.13
2018-04-10T05:41:23.152Z,25.83
2018-04-10T05:43:50.717Z,25.20
2018-04-10T05:46:18.293Z,27.27
2018-04-10T05:48:45.853Z,26.77
2018-04-10T05:51:13.412Z,27.80
2018-04-10T05:53:40.973Z,26.73
2018-04-10T05:56:08.541Z,28.27
2018-04-10T05:58:36.076Z,27.57
2018-04-10T06:01:03.649Z,26.90
2018-04-10T06:03:31.219Z,26.47
2018-04-10T06:05:58.772Z,26.77
2018-04-10T06:08:26.324Z,25.20
2018-04-10T06:10:53.873Z,27.30
2018-04-10T06:13:21.413Z,25.07
2018-04-10T06:15:49.033Z,25.80
2018-04-10T06:18:16.580Z,25.00
2018-04-10T06:20:44.146Z,25.03
2018-04-10T06:23:11.707Z,25.30
2018-04-10T06:25:39.296Z,23.77
2018-04-10T06:28:06.875Z,24.10
2018-04-10T06:30:34.422Z,25.37
2018-04-10T06:33:01.981Z,24.80
2018-04-10T06:35:29.553Z,23.87
2018-04-10T06:37:57.101Z,23.47
2018-04-10T06:40:24.707Z,26.40
2018-04-10T06:42:52.308Z,24.77
2018-04-10T06:45:19.859Z,25.60
2018-04-10T06:47:47.406Z,24.47
2018-04-10T06:50:14.965Z,25.10
2018-04-10T06:52:42.539Z,25.40
2018-04-10T06:55:10.124Z,25.23
2018-04-10T06:57:37.678Z,26.23
2018-04-10T07:00:05.284Z,25.73
2018-04-10T07:02:32.830Z,26.27
2018-04-10T07:05:00.392Z,25.80
2018-04-10T07:07:27.957Z,25.33
2018-04-10T07:09:55.511Z,26.93
2018-04-10T07:12:23.038Z,25.80
2018-04-10T07:14:50.594Z,26.07
2018-04-10T07:17:18.137Z,26.03
2018-04-10T07:19:45.711Z,27.47
2018-04-10T07:22:13.304Z,26.77
2018-04-10T07:24:40.853Z,25.90
2018-04-10T07:27:08.393Z,26.40
2018-04-10T07:29:35.941Z,25.90
2018-04-10T07:32:03.865Z,26.20
2018-04-10T07:34:31.413Z,27.27
2018-04-10T07:36:58.965Z,26.70
2018-04-10T07:39:26.545Z,26.53
2018-04-10T07:41:54.123Z,25.27
2018-04-10T07:44:21.677Z,27.50
2018-04-10T07:46:49.234Z,25.80
2018-04-10T07:49:16.801Z,26.90
2018-04-10T07:51:44.366Z,27.57
2018-04-10T07:54:11.955Z,26.47
2018-04-10T07:56:39.507Z,25.90
2018-04-10T07:59:07.083Z,26.47
2018-04-10T08:01:34.622Z,26.40
2018-04-10T08:04:02.191Z,25.87
2018-04-10T08:06:29.759Z,27.07
2018-04-10T08:08:57.307Z,27.53
2018-04-10T08:11:24.848Z,26.27
2018-04-10T08:13:52.418Z,26.97
2018-04-10T08:16:19.989Z,27.00
2018-04-10T08:18:47.519Z,26.60
2018-04-10T19:14:13.964Z,24.27
2018-04-10T19:16:42.367Z,23.30
2018-04-10T19:19:09.963Z,23.40
2018-04-10T19:21:37.520Z,24.90
2018-04-10T19:24:05.113Z,25.17
2018-04-10T19:26:32.727Z,23.33
2018-04-10T19:29:00.305Z,23.73
2018-04-10T19:31:27.896Z,24.07
2018-04-10T19:33:55.423Z,23.60
2018-04-10T19:36:22.992Z,23.87
2018-04-10T19:38:50.548Z,24.63
2018-04-10T19:41:18.102Z,23.37
2018-04-10T19:43:45.662Z,24.83
2018-04-10T19:46:13.226Z,26.07
2018-04-10T19:48:40.802Z,25.27
2018-04-10T19:51:08.375Z,24.77
2018-04-10T19:53:35.938Z,24.43
2018-04-10T19:56:03.504Z,24.20
2018-04-10T19:58:31.059Z,24.10
2018-04-10T20:00:58.585Z,23.73
2018-04-10T20:03:26.145Z,24.67
2018-04-10T20:05:53.734Z,23.97
2018-04-10T20:08:21.280Z,23.73
2018-04-10T20:10:48.925Z,23.50
2018-04-10T20:13:16.532Z,23.60
2018-04-10T20:15:44.121Z,25.50
2018-04-10T20:18:11.777Z,24.60
2018-04-10T20:20:39.842Z,24.83
2018-04-10T20:23:07.406Z,23.83
2018-04-10T20:25:34.990Z,24.97
2018-04-10T20:28:02.582Z,24.63
2018-04-10T20:30:30.155Z,20.57
2018-04-10T20:32:57.705Z,23.00
2018-04-10T20:35:25.279Z,24.40
2018-04-10T20:37:53.036Z,23.97
2018-04-10T20:40:21.196Z,24.27
2018-04-10T20:42:48.765Z,23.27
2018-04-10T20:45:16.317Z,23.63
2018-04-10T20:47:43.892Z,23.23
2018-04-10T20:50:11.455Z,22.80
2018-04-10T20:52:39.002Z,25.07
2018-04-10T20:55:06.655Z,22.40
2018-04-10T20:57:34.354Z,21.47
2018-04-10T21:00:02.120Z,23.43
2018-04-10T21:02:29.844Z,24.10
2018-04-10T21:04:57.635Z,22.33
2018-04-10T21:07:25.299Z,22.37
2018-04-10T21:09:52.901Z,22.60
2018-04-10T21:12:20.445Z,23.83
2018-04-10T21:14:48.126Z,23.90
2018-04-10T21:17:15.763Z,22.10
2018-04-10T21:19:43.359Z,23.43
2018-04-10T21:22:10.917Z,23.03
2018-04-10T21:24:38.515Z,23.07
2018-04-10T21:27:06.261Z,23.17
2018-04-10T21:29:33.823Z,22.53
2018-04-10T21:32:01.495Z,22.93
2018-04-10T21:34:29.086Z,19.87
2018-04-10T21:36:56.679Z,23.30
2018-04-10T21:39:24.376Z,20.37
2018-04-10T21:41:51.939Z,22.93
2018-04-10T21:44:19.633Z,21.27
2018-04-10T21:46:47.255Z,22.83
2018-04-10T21:49:14.853Z,24.27
2018-04-10T21:51:42.573Z,22.70
2018-04-10T21:54:10.148Z,21.40
2018-04-10T21:56:37.712Z,21.17
2018-04-10T21:59:05.469Z,21.20
2018-04-10T22:01:34.633Z,19.83
2018-04-10T22:04:02.792Z,20.60
2018-04-10T22:06:30.354Z,21.00
2018-04-10T22:08:57.916Z,20.27
2018-04-10T22:11:25.625Z,20.50
2018-04-10T22:13:53.181Z,20.83
2018-04-10T22:16:20.738Z,22.20
2018-04-10T22:18:48.312Z,20.90
2018-04-10T22:21:15.857Z,22.07
2018-04-10T22:23:43.421Z,20.87
2018-04-10T22:26:10.991Z,19.40
2018-04-10T22:28:38.591Z,20.10
2018-04-10T22:31:06.149Z,20.13
2018-04-10T22:33:33.701Z,20.70
2018-04-10T22:36:01.313Z,20.23
2018-04-10T22:38:28.895Z,22.70
2018-04-10T22:40:56.500Z,20.17
2018-04-10T22:43:24.089Z,21.27
2018-04-10T22:45:51.675Z,20.00
2018-04-10T22:48:19.252Z,19.17
2018-04-10T22:50:46.815Z,20.90
2018-04-10T22:53:14.386Z,21.13
2018-04-10T22:55:41.959Z,20.83
2018-04-10T22:58:09.520Z,20.00
2018-04-10T23:00:54.728Z,21.77
2018-04-10T23:03:22.296Z,21.13
2018-04-10T23:05:49.877Z,21.23
2018-04-10T23:08:17.474Z,20.60
2018-04-10T23:10:45.013Z,20.47
2018-04-10T23:13:12.785Z,19.27
2018-04-10T23:15:40.350Z,21.23
2018-04-10T23:18:07.925Z,21.53
2018-04-10T23:20:35.493Z,21.03
2018-04-10T23:23:03.066Z,20.87
2018-04-10T23:25:30.630Z,20.67
2018-04-10T23:27:58.188Z,19.60
2018-04-10T23:30:25.728Z,20.63
2018-04-10T23:32:53.286Z,20.90
2018-04-10T23:35:20.886Z,19.83
2018-04-10T23:37:48.456Z,19.63
2018-04-10T23:40:15.992Z,21.27
2018-04-10T23:42:43.577Z,21.40
2018-04-10T23:45:11.135Z,21.77
2018-04-10T23:47:38.724Z,20.20
2018-04-10T23:50:06.271Z,20.10
2018-04-10T23:52:33.815Z,21.43
2018-04-10T23:55:01.369Z,20.10
2018-04-10T23:57:28.929Z,20.83
2018-04-10T23:59:56.460Z,19.50
